sensor_id;sensor_type;location;lat;lon;timestamp;P1;durP1;ratioP1;P2;durP2;ratioP2
146;SDS011;45999;48.808;9.182;2023-06-24T00:01:42;4.40;;;4.00;;
146;SDS011;45999;48.808;9.182;2023-06-24T00:04:09;4.00;;;3.70;;
146;SDS011;45999;48.808;9.182;2023-06-24T00:06:35;5.47;;;3.80;;
146;SDS011;45999;48.808;9.182;2023-06-24T00:09:02;4.40;;;4.00;;
146;SDS011;45999;48.808;9.182;2023-06-24T00:11:29;4.70;;;4.13;;
146;SDS011;45999;48.808;9.182;2023-06-24T00:13:55;4.57;;;4.10;;
146;SDS011;45999;48.808;9.182;2023-06-24T00:16:22;5.30;;;4.43;;
146;SDS011;45999;48.808;9.182;2023-06-24T00:18:53;4.77;;;4.30;;
146;SDS011;45999;48.808;9.182;2023-06-24T00:21:23;4.83;;;4.30;;
146;SDS011;45999;48.808;9.182;2023-06-24T00:23:54;4.43;;;4.03;;
146;SDS011;45999;48.808;9.182;2023-06-24T00:26:26;4.70;;;4.30;;
146;SDS011;45999;48.808;9.182;2023-06-24T00:28:53;4.73;;;4.20;;
146;SDS011;45999;48.808;9.182;2023-06-24T00:31:19;4.87;;;4.47;;
146;SDS011;45999;48.808;9.182;2023-06-24T00:33:46;4.73;;;4.33;;
146;SDS011;45999;48.808;9.182;2023-06-24T00:36:14;4.80;;;4.40;;
146;SDS011;45999;48.808;9.182;2023-06-24T00:38:40;5.17;;;4.77;;
146;SDS011;45999;48.808;9.182;2023-06-24T00:41:07;5.17;;;4.57;;
146;SDS011;45999;48.808;9.182;2023-06-24T00:43:33;5.00;;;4.57;;
146;SDS011;45999;48.808;9.182;2023-06-24T00:46:00;5.20;;;4.70;;
146;SDS011;45999;48.808;9.182;2023-06-24T00:48:27;6.60;;;5.00;;
146;SDS011;45999;48.808;9.182;2023-06-24T00:50:53;5.60;;;5.00;;
146;SDS011;45999;48.808;9.182;2023-06-24T00:53:19;7.00;;;4.83;;
146;SDS011;45999;48.808;9.182;2023-06-24T00:55:49;5.20;;;4.67;;
146;SDS011;45999;48.808;9.182;2023-06-24T00:58:17;5.93;;;5.33;;
146;SDS011;45999;48.808;9.182;2023-06-24T01:00:46;5.73;;;5.10;;
146;SDS011;45999;48.808;9.182;2023-06-24T01:03:22;6.37;;;4.90;;
146;SDS011;45999;48.808;9.182;2023-06-24T01:05:48;6.43;;;5.77;;
146;SDS011;45999;48.808;9.182;2023-06-24T01:08:15;5.73;;;5.13;;
146;SDS011;45999;48.808;9.182;2023-06-24T01:10:44;7.57;;;5.23;;
146;SDS011;45999;48.808;9.182;2023-06-24T01:13:11;6.00;;;5.40;;
146;SDS011;45999;48.808;9.182;2023-06-24T01:15:37;5.70;;;5.10;;
146;SDS011;45999;48.808;9.182;2023-06-24T01:18:07;5.93;;;4.97;;
146;SDS011;45999;48.808;9.182;2023-06-24T01:23:20;5.37;;;4.87;;
146;SDS011;45999;48.808;9.182;2023-06-24T01:34:28;5.37;;;4.97;;
146;SDS011;45999;48.808;9.182;2023-06-24T01:37:14;5.33;;;4.93;;
146;SDS011;45999;48.808;9.182;2023-06-24T01:40:28;5.40;;;4.90;;
146;SDS011;45999;48.808;9.182;2023-06-24T01:42:46;5.77;;;4.67;;
146;SDS011;45999;48.808;9.182;2023-06-24T01:45:16;6.10;;;4.97;;
146;SDS011;45999;48.808;9.182;2023-06-24T01:47:47;5.80;;;4.70;;
146;SDS011;45999;48.808;9.182;2023-06-24T01:50:19;5.37;;;4.87;;
146;SDS011;45999;48.808;9.182;2023-06-24T01:52:48;6.43;;;5.37;;
146;SDS011;45999;48.808;9.182;2023-06-24T01:55:18;5.67;;;5.10;;
146;SDS011;45999;48.808;9.182;2023-06-24T01:57:47;5.60;;;5.10;;
146;SDS011;45999;48.808;9.182;2023-06-24T02:00:16;6.23;;;5.17;;
146;SDS011;45999;48.808;9.182;2023-06-24T02:02:43;5.87;;;5.37;;
146;SDS011;45999;48.808;9.182;2023-06-24T02:05:12;5.50;;;5.00;;
146;SDS011;45999;48.808;9.182;2023-06-24T02:07:41;5.77;;;5.20;;
146;SDS011;45999;48.808;9.182;2023-06-24T02:10:08;5.37;;;4.87;;
146;SDS011;45999;48.808;9.182;2023-06-24T02:12:36;5.50;;;5.00;;
146;SDS011;45999;48.808;9.182;2023-06-24T02:15:05;5.40;;;4.90;;
146;SDS011;45999;48.808;9.182;2023-06-24T02:17:33;4.90;;;4.50;;
146;SDS011;45999;48.808;9.182;2023-06-24T02:20:01;6.40;;;5.10;;
146;SDS011;45999;48.808;9.182;2023-06-24T02:22:29;5.00;;;4.60;;
146;SDS011;45999;48.808;9.182;2023-06-24T02:24:56;7.03;;;5.23;;
146;SDS011;45999;48.808;9.182;2023-06-24T02:27:23;8.77;;;4.80;;
146;SDS011;45999;48.808;9.182;2023-06-24T02:29:50;5.27;;;4.77;;
146;SDS011;45999;48.808;9.182;2023-06-24T02:32:18;6.00;;;5.23;;
146;SDS011;45999;48.808;9.182;2023-06-24T02:34:44;6.53;;;4.90;;
146;SDS011;45999;48.808;9.182;2023-06-24T02:37:11;5.20;;;4.70;;
146;SDS011;45999;48.808;9.182;2023-06-24T02:39:37;5.20;;;4.70;;
146;SDS011;45999;48.808;9.182;2023-06-24T02:42:09;4.93;;;4.53;;
146;SDS011;45999;48.808;9.182;2023-06-24T02:44:36;4.90;;;4.50;;
146;SDS011;45999;48.808;9.182;2023-06-24T02:47:05;6.20;;;5.27;;
146;SDS011;45999;48.808;9.182;2023-06-24T02:49:35;5.50;;;5.00;;
146;SDS011;45999;48.808;9.182;2023-06-24T02:52:03;5.13;;;4.70;;
146;SDS011;45999;48.808;9.182;2023-06-24T02:54:30;5.23;;;4.77;;
146;SDS011;45999;48.808;9.182;2023-06-24T02:56:56;6.57;;;4.97;;
146;SDS011;45999;48.808;9.182;2023-06-24T02:59:24;5.90;;;5.00;;
146;SDS011;45999;48.808;9.182;2023-06-24T03:01:51;6.20;;;5.60;;
146;SDS011;45999;48.808;9.182;2023-06-24T03:04:18;5.50;;;5.00;;
146;SDS011;45999;48.808;9.182;2023-06-24T03:06:46;6.73;;;4.90;;
146;SDS011;45999;48.808;9.182;2023-06-24T03:09:14;5.87;;;5.20;;
146;SDS011;45999;48.808;9.182;2023-06-24T03:11:42;5.27;;;4.87;;
146;SDS011;45999;48.808;9.182;2023-06-24T03:14:09;6.00;;;5.13;;
146;SDS011;45999;48.808;9.182;2023-06-24T03:16:36;5.73;;;4.60;;
146;SDS011;45999;48.808;9.182;2023-06-24T03:19:04;5.50;;;5.00;;
146;SDS011;45999;48.808;9.182;2023-06-24T03:21:30;6.53;;;5.20;;
146;SDS011;45999;48.808;9.182;2023-06-24T03:23:57;6.17;;;4.73;;
146;SDS011;45999;48.808;9.182;2023-06-24T03:26:30;5.57;;;5.07;;
146;SDS011;45999;48.808;9.182;2023-06-24T03:28:58;5.90;;;5.30;;
146;SDS011;45999;48.808;9.182;2023-06-24T03:31:24;5.77;;;5.17;;
146;SDS011;45999;48.808;9.182;2023-06-24T03:33:50;5.07;;;4.57;;
146;SDS011;45999;48.808;9.182;2023-06-24T03:36:17;5.63;;;5.13;;
146;SDS011;45999;48.808;9.182;2023-06-24T03:38:43;5.37;;;4.97;;
146;SDS011;45999;48.808;9.182;2023-06-24T03:41:09;6.77;;;5.57;;
146;SDS011;45999;48.808;9.182;2023-06-24T03:43:36;6.13;;;5.53;;
146;SDS011;45999;48.808;9.182;2023-06-24T03:46:02;5.60;;;5.00;;
146;SDS011;45999;48.808;9.182;2023-06-24T03:48:28;6.07;;;5.47;;
146;SDS011;45999;48.808;9.182;2023-06-24T03:50:55;5.60;;;5.10;;
146;SDS011;45999;48.808;9.182;2023-06-24T03:53:21;5.90;;;5.40;;
146;SDS011;45999;48.808;9.182;2023-06-24T03:55:47;7.37;;;5.50;;
146;SDS011;45999;48.808;9.182;2023-06-24T03:58:14;6.63;;;6.03;;
146;SDS011;45999;48.808;9.182;2023-06-24T04:00:41;6.43;;;5.63;;
146;SDS011;45999;48.808;9.182;2023-06-24T04:03:09;6.37;;;5.43;;
146;SDS011;45999;48.808;9.182;2023-06-24T04:05:36;5.50;;;5.00;;
146;SDS011;45999;48.808;9.182;2023-06-24T04:08:02;6.53;;;5.90;;
146;SDS011;45999;48.808;9.182;2023-06-24T04:10:30;6.53;;;5.70;;
146;SDS011;45999;48.808;9.182;2023-06-24T04:12:57;6.93;;;6.17;;
146;SDS011;45999;48.808;9.182;2023-06-24T04:15:23;6.63;;;5.90;;
146;SDS011;45999;48.808;9.182;2023-06-24T04:17:50;6.30;;;5.63;;
146;SDS011;45999;48.808;9.182;2023-06-24T04:20:16;6.37;;;5.70;;
146;SDS011;45999;48.808;9.182;2023-06-24T04:22:42;5.77;;;5.27;;
146;SDS011;45999;48.808;9.182;2023-06-24T04:25:08;6.77;;;5.17;;
146;SDS011;45999;48.808;9.182;2023-06-24T04:27:35;6.37;;;5.77;;
146;SDS011;45999;48.808;9.182;2023-06-24T04:30:02;6.30;;;5.77;;
146;SDS011;45999;48.808;9.182;2023-06-24T04:32:29;6.17;;;5.57;;
146;SDS011;45999;48.808;9.182;2023-06-24T04:34:57;6.40;;;5.80;;
146;SDS011;45999;48.808;9.182;2023-06-24T04:37:24;6.10;;;5.60;;
146;SDS011;45999;48.808;9.182;2023-06-24T04:39:51;7.10;;;6.40;;
146;SDS011;45999;48.808;9.182;2023-06-24T04:42:17;6.87;;;5.90;;
146;SDS011;45999;48.808;9.182;2023-06-24T04:44:43;6.83;;;6.23;;
146;SDS011;45999;48.808;9.182;2023-06-24T04:47:10;6.93;;;6.33;;
146;SDS011;45999;48.808;9.182;2023-06-24T04:49:38;7.93;;;6.07;;
146;SDS011;45999;48.808;9.182;2023-06-24T04:52:05;6.10;;;5.60;;
146;SDS011;45999;48.808;9.182;2023-06-24T04:54:32;6.90;;;6.20;;
146;SDS011;45999;48.808;9.182;2023-06-24T04:56:58;7.00;;;6.13;;
146;SDS011;45999;48.808;9.182;2023-06-24T04:59:25;6.70;;;6.10;;
146;SDS011;45999;48.808;9.182;2023-06-24T05:01:51;6.50;;;5.90;;
146;SDS011;45999;48.808;9.182;2023-06-24T05:04:17;7.10;;;6.17;;
146;SDS011;45999;48.808;9.182;2023-06-24T05:06:44;6.93;;;6.23;;
146;SDS011;45999;48.808;9.182;2023-06-24T05:09:10;7.00;;;5.83;;
146;SDS011;45999;48.808;9.182;2023-06-24T05:11:39;8.00;;;5.63;;
146;SDS011;45999;48.808;9.182;2023-06-24T05:14:06;6.93;;;5.57;;
146;SDS011;45999;48.808;9.182;2023-06-24T05:16:32;8.63;;;6.13;;
146;SDS011;45999;48.808;9.182;2023-06-24T05:18:59;7.13;;;5.50;;
146;SDS011;45999;48.808;9.182;2023-06-24T05:21:25;5.97;;;5.37;;
146;SDS011;45999;48.808;9.182;2023-06-24T05:23:51;6.70;;;5.50;;
146;SDS011;45999;48.808;9.182;2023-06-24T05:26:18;7.40;;;5.60;;
146;SDS011;45999;48.808;9.182;2023-06-24T05:28:44;6.00;;;5.30;;
146;SDS011;45999;48.808;9.182;2023-06-24T05:31:10;6.00;;;5.50;;
146;SDS011;45999;48.808;9.182;2023-06-24T05:33:37;6.20;;;5.60;;
146;SDS011;45999;48.808;9.182;2023-06-24T05:36:03;6.03;;;5.37;;
146;SDS011;45999;48.808;9.182;2023-06-24T05:38:30;5.80;;;5.20;;
146;SDS011;45999;48.808;9.182;2023-06-24T05:40:56;5.77;;;4.83;;
146;SDS011;45999;48.808;9.182;2023-06-24T05:43:22;6.10;;;5.30;;
146;SDS011;45999;48.808;9.182;2023-06-24T05:45:49;6.07;;;5.43;;
146;SDS011;45999;48.808;9.182;2023-06-24T05:48:15;5.97;;;5.40;;
146;SDS011;45999;48.808;9.182;2023-06-24T05:50:41;5.53;;;4.90;;
146;SDS011;45999;48.808;9.182;2023-06-24T05:53:08;5.53;;;4.83;;
146;SDS011;45999;48.808;9.182;2023-06-24T05:55:34;5.53;;;5.03;;
146;SDS011;45999;48.808;9.182;2023-06-24T05:58:00;5.27;;;4.73;;
146;SDS011;45999;48.808;9.182;2023-06-24T06:00:27;5.03;;;4.53;;
146;SDS011;45999;48.808;9.182;2023-06-24T06:02:53;6.23;;;4.97;;
146;SDS011;45999;48.808;9.182;2023-06-24T06:05:19;6.50;;;4.57;;
146;SDS011;45999;48.808;9.182;2023-06-24T06:07:46;4.67;;;4.10;;
146;SDS011;45999;48.808;9.182;2023-06-24T06:10:13;4.50;;;4.20;;
146;SDS011;45999;48.808;9.182;2023-06-24T06:12:42;4.53;;;4.10;;
146;SDS011;45999;48.808;9.182;2023-06-24T06:15:09;4.57;;;3.87;;
146;SDS011;45999;48.808;9.182;2023-06-24T06:17:35;4.70;;;4.30;;
146;SDS011;45999;48.808;9.182;2023-06-24T06:20:02;4.93;;;4.33;;
146;SDS011;45999;48.808;9.182;2023-06-24T06:22:28;4.60;;;4.20;;
146;SDS011;45999;48.808;9.182;2023-06-24T06:24:57;4.40;;;4.00;;
146;SDS011;45999;48.808;9.182;2023-06-24T06:27:23;5.63;;;4.57;;
146;SDS011;45999;48.808;9.182;2023-06-24T06:29:49;5.97;;;4.80;;
146;SDS011;45999;48.808;9.182;2023-06-24T06:32:16;4.83;;;4.43;;
146;SDS011;45999;48.808;9.182;2023-06-24T06:34:42;6.10;;;5.03;;
146;SDS011;45999;48.808;9.182;2023-06-24T06:37:08;5.57;;;4.90;;
146;SDS011;45999;48.808;9.182;2023-06-24T06:39:35;4.10;;;3.70;;
146;SDS011;45999;48.808;9.182;2023-06-24T06:42:01;3.73;;;3.30;;
146;SDS011;45999;48.808;9.182;2023-06-24T06:44:27;4.17;;;3.77;;
146;SDS011;45999;48.808;9.182;2023-06-24T06:46:54;5.00;;;4.10;;
146;SDS011;45999;48.808;9.182;2023-06-24T06:49:20;4.30;;;3.90;;
146;SDS011;45999;48.808;9.182;2023-06-24T06:51:47;4.07;;;3.77;;
146;SDS011;45999;48.808;9.182;2023-06-24T06:54:13;4.80;;;4.20;;
146;SDS011;45999;48.808;9.182;2023-06-24T06:56:40;3.73;;;3.43;;
146;SDS011;45999;48.808;9.182;2023-06-24T06:59:06;4.23;;;3.83;;
146;SDS011;45999;48.808;9.182;2023-06-24T07:01:33;3.70;;;3.40;;
146;SDS011;45999;48.808;9.182;2023-06-24T07:03:59;4.13;;;3.63;;
146;SDS011;45999;48.808;9.182;2023-06-24T07:06:25;3.40;;;3.07;;
146;SDS011;45999;48.808;9.182;2023-06-24T07:08:52;4.03;;;3.67;;
146;SDS011;45999;48.808;9.182;2023-06-24T07:11:18;3.92;;;3.40;;
146;SDS011;45999;48.808;9.182;2023-06-24T07:13:45;4.03;;;3.63;;
146;SDS011;45999;48.808;9.182;2023-06-24T07:16:11;4.07;;;3.67;;
146;SDS011;45999;48.808;9.182;2023-06-24T07:18:38;4.97;;;3.80;;
146;SDS011;45999;48.808;9.182;2023-06-24T07:21:04;4.15;;;3.75;;
146;SDS011;45999;48.808;9.182;2023-06-24T07:23:30;3.78;;;3.40;;
146;SDS011;45999;48.808;9.182;2023-06-24T07:25:57;4.78;;;3.38;;
146;SDS011;45999;48.808;9.182;2023-06-24T07:28:23;3.60;;;3.30;;
146;SDS011;45999;48.808;9.182;2023-06-24T07:30:50;3.55;;;3.25;;
146;SDS011;45999;48.808;9.182;2023-06-24T07:33:16;3.50;;;3.20;;
146;SDS011;45999;48.808;9.182;2023-06-24T07:35:42;4.05;;;3.47;;
146;SDS011;45999;48.808;9.182;2023-06-24T07:38:09;2.97;;;2.78;;
146;SDS011;45999;48.808;9.182;2023-06-24T07:40:35;3.33;;;3.05;;
146;SDS011;45999;48.808;9.182;2023-06-24T07:43:02;4.18;;;3.42;;
146;SDS011;45999;48.808;9.182;2023-06-24T07:45:28;3.53;;;3.22;;
146;SDS011;45999;48.808;9.182;2023-06-24T07:47:54;3.70;;;3.40;;
146;SDS011;45999;48.808;9.182;2023-06-24T07:50:21;4.07;;;3.78;;
146;SDS011;45999;48.808;9.182;2023-06-24T07:52:47;3.53;;;3.22;;
146;SDS011;45999;48.808;9.182;2023-06-24T07:55:13;3.90;;;3.60;;
146;SDS011;45999;48.808;9.182;2023-06-24T07:57:40;3.85;;;3.25;;
146;SDS011;45999;48.808;9.182;2023-06-24T08:00:10;4.80;;;3.42;;
146;SDS011;45999;48.808;9.182;2023-06-24T08:02:37;5.20;;;3.95;;
146;SDS011;45999;48.808;9.182;2023-06-24T08:05:03;5.38;;;3.63;;
146;SDS011;45999;48.808;9.182;2023-06-24T08:07:30;3.90;;;3.58;;
146;SDS011;45999;48.808;9.182;2023-06-24T08:09:56;3.95;;;3.38;;
146;SDS011;45999;48.808;9.182;2023-06-24T08:12:23;3.90;;;3.60;;
146;SDS011;45999;48.808;9.182;2023-06-24T08:14:49;3.50;;;3.20;;
146;SDS011;45999;48.808;9.182;2023-06-24T08:17:15;3.50;;;2.95;;
146;SDS011;45999;48.808;9.182;2023-06-24T08:19:42;4.13;;;3.72;;
146;SDS011;45999;48.808;9.182;2023-06-24T08:22:08;3.80;;;3.50;;
146;SDS011;45999;48.808;9.182;2023-06-24T08:24:34;4.10;;;3.78;;
146;SDS011;45999;48.808;9.182;2023-06-24T08:27:02;3.70;;;3.40;;
146;SDS011;45999;48.808;9.182;2023-06-24T08:29:28;3.85;;;3.53;;
146;SDS011;45999;48.808;9.182;2023-06-24T08:31:54;3.35;;;3.05;;
146;SDS011;45999;48.808;9.182;2023-06-24T08:34:21;4.85;;;2.88;;
146;SDS011;45999;48.808;9.182;2023-06-24T08:36:47;3.38;;;3.10;;
146;SDS011;45999;48.808;9.182;2023-06-24T08:39:14;3.25;;;3.05;;
146;SDS011;45999;48.808;9.182;2023-06-24T08:41:40;3.90;;;2.70;;
146;SDS011;45999;48.808;9.182;2023-06-24T08:44:06;4.20;;;3.20;;
146;SDS011;45999;48.808;9.182;2023-06-24T08:46:33;3.00;;;2.80;;
146;SDS011;45999;48.808;9.182;2023-06-24T08:49:19;3.30;;;3.00;;
146;SDS011;45999;48.808;9.182;2023-06-24T08:51:51;3.65;;;3.20;;
146;SDS011;45999;48.808;9.182;2023-06-24T08:54:24;4.72;;;3.22;;
146;SDS011;45999;48.808;9.182;2023-06-24T08:56:52;4.00;;;3.22;;
146;SDS011;45999;48.808;9.182;2023-06-24T08:59:19;4.53;;;3.75;;
146;SDS011;45999;48.808;9.182;2023-06-24T09:01:49;3.60;;;3.28;;
146;SDS011;45999;48.808;9.182;2023-06-24T09:04:16;3.53;;;3.22;;
146;SDS011;45999;48.808;9.182;2023-06-24T09:06:42;3.40;;;3.10;;
146;SDS011;45999;48.808;9.182;2023-06-24T09:09:22;5.35;;;3.22;;
146;SDS011;45999;48.808;9.182;2023-06-24T09:14:23;3.50;;;3.30;;
146;SDS011;45999;48.808;9.182;2023-06-24T09:16:53;3.63;;;3.25;;
146;SDS011;45999;48.808;9.182;2023-06-24T09:19:24;3.40;;;3.20;;
146;SDS011;45999;48.808;9.182;2023-06-24T09:21:54;2.97;;;2.78;;
146;SDS011;45999;48.808;9.182;2023-06-24T09:24:30;3.13;;;2.88;;
146;SDS011;45999;48.808;9.182;2023-06-24T09:26:58;3.75;;;3.33;;
146;SDS011;45999;48.808;9.182;2023-06-24T09:29:28;3.50;;;3.20;;
146;SDS011;45999;48.808;9.182;2023-06-24T09:31:57;3.63;;;3.33;;
146;SDS011;45999;48.808;9.182;2023-06-24T09:34:25;3.38;;;3.08;;
146;SDS011;45999;48.808;9.182;2023-06-24T09:36:53;3.30;;;3.00;;
146;SDS011;45999;48.808;9.182;2023-06-24T09:39:20;3.15;;;2.95;;
146;SDS011;45999;48.808;9.182;2023-06-24T09:41:53;2.95;;;2.75;;
146;SDS011;45999;48.808;9.182;2023-06-24T09:44:19;3.13;;;2.83;;
146;SDS011;45999;48.808;9.182;2023-06-24T09:46:46;3.58;;;3.00;;
146;SDS011;45999;48.808;9.182;2023-06-24T09:49:13;3.03;;;2.78;;
146;SDS011;45999;48.808;9.182;2023-06-24T09:51:43;3.45;;;3.15;;
146;SDS011;45999;48.808;9.182;2023-06-24T09:54:14;2.63;;;2.42;;
146;SDS011;45999;48.808;9.182;2023-06-24T09:56:50;3.20;;;2.90;;
146;SDS011;45999;48.808;9.182;2023-06-24T09:59:18;3.40;;;2.50;;
146;SDS011;45999;48.808;9.182;2023-06-24T10:01:46;3.10;;;2.60;;
146;SDS011;45999;48.808;9.182;2023-06-24T10:04:18;2.97;;;2.70;;
146;SDS011;45999;48.808;9.182;2023-06-24T10:06:46;3.13;;;2.60;;
146;SDS011;45999;48.808;9.182;2023-06-24T10:09:13;3.08;;;2.72;;
146;SDS011;45999;48.808;9.182;2023-06-24T10:11:42;2.97;;;2.78;;
146;SDS011;45999;48.808;9.182;2023-06-24T10:14:10;3.08;;;2.85;;
146;SDS011;45999;48.808;9.182;2023-06-24T10:16:36;3.50;;;3.20;;
146;SDS011;45999;48.808;9.182;2023-06-24T10:19:03;3.30;;;3.10;;
146;SDS011;45999;48.808;9.182;2023-06-24T10:22:05;3.58;;;3.22;;
146;SDS011;45999;48.808;9.182;2023-06-24T10:27:00;3.10;;;2.90;;
146;SDS011;45999;48.808;9.182;2023-06-24T10:29:32;2.90;;;2.58;;
146;SDS011;45999;48.808;9.182;2023-06-24T10:32:04;3.83;;;3.20;;
146;SDS011;45999;48.808;9.182;2023-06-24T10:34:33;3.15;;;2.85;;
146;SDS011;45999;48.808;9.182;2023-06-24T10:47:35;3.38;;;3.03;;
146;SDS011;45999;48.808;9.182;2023-06-24T10:50:04;2.90;;;2.70;;
146;SDS011;45999;48.808;9.182;2023-06-24T10:52:31;4.13;;;2.90;;
146;SDS011;45999;48.808;9.182;2023-06-24T10:54:58;3.40;;;3.10;;
146;SDS011;45999;48.808;9.182;2023-06-24T10:57:25;3.00;;;2.78;;
146;SDS011;45999;48.808;9.182;2023-06-24T10:59:53;2.88;;;2.67;;
146;SDS011;45999;48.808;9.182;2023-06-24T11:02:22;2.85;;;2.60;;
146;SDS011;45999;48.808;9.182;2023-06-24T11:04:53;3.08;;;2.78;;
146;SDS011;45999;48.808;9.182;2023-06-24T11:07:27;2.83;;;2.63;;
146;SDS011;45999;48.808;9.182;2023-06-24T11:09:58;2.67;;;2.47;;
146;SDS011;45999;48.808;9.182;2023-06-24T11:12:28;3.70;;;3.30;;
146;SDS011;45999;48.808;9.182;2023-06-24T11:14:57;2.90;;;2.70;;
146;SDS011;45999;48.808;9.182;2023-06-24T11:17:25;3.90;;;3.60;;
146;SDS011;45999;48.808;9.182;2023-06-24T11:19:52;3.10;;;2.90;;
146;SDS011;45999;48.808;9.182;2023-06-24T11:22:20;2.90;;;2.70;;
146;SDS011;45999;48.808;9.182;2023-06-24T11:24:47;3.80;;;3.35;;
146;SDS011;45999;48.808;9.182;2023-06-24T11:27:14;2.83;;;2.63;;
146;SDS011;45999;48.808;9.182;2023-06-24T11:29:40;3.15;;;2.92;;
146;SDS011;45999;48.808;9.182;2023-06-24T11:32:07;4.25;;;3.20;;
146;SDS011;45999;48.808;9.182;2023-06-24T11:34:35;3.30;;;3.00;;
146;SDS011;45999;48.808;9.182;2023-06-24T11:37:14;4.45;;;2.70;;
146;SDS011;45999;48.808;9.182;2023-06-24T11:39:42;3.30;;;2.70;;
146;SDS011;45999;48.808;9.182;2023-06-24T11:42:09;3.25;;;2.95;;
146;SDS011;45999;48.808;9.182;2023-06-24T11:44:42;3.10;;;2.90;;
146;SDS011;45999;48.808;9.182;2023-06-24T11:47:09;3.92;;;3.30;;
146;SDS011;45999;48.808;9.182;2023-06-24T11:49:53;3.15;;;2.90;;
146;SDS011;45999;48.808;9.182;2023-06-24T11:55:20;4.35;;;3.30;;
146;SDS011;45999;48.808;9.182;2023-06-24T11:57:55;3.15;;;2.95;;
146;SDS011;45999;48.808;9.182;2023-06-24T12:00:24;3.25;;;2.88;;
146;SDS011;45999;48.808;9.182;2023-06-24T12:02:55;3.60;;;3.30;;
146;SDS011;45999;48.808;9.182;2023-06-24T12:05:33;3.30;;;3.00;;
146;SDS011;45999;48.808;9.182;2023-06-24T12:08:07;3.05;;;2.85;;
146;SDS011;45999;48.808;9.182;2023-06-24T12:10:37;3.17;;;2.95;;
146;SDS011;45999;48.808;9.182;2023-06-24T12:13:05;4.45;;;2.92;;
146;SDS011;45999;48.808;9.182;2023-06-24T12:15:33;3.10;;;2.90;;
146;SDS011;45999;48.808;9.182;2023-06-24T12:18:00;3.30;;;3.03;;
146;SDS011;45999;48.808;9.182;2023-06-24T12:20:28;4.03;;;2.95;;
146;SDS011;45999;48.808;9.182;2023-06-24T12:22:55;2.95;;;2.75;;
146;SDS011;45999;48.808;9.182;2023-06-24T12:25:21;2.95;;;2.65;;
146;SDS011;45999;48.808;9.182;2023-06-24T12:27:47;3.15;;;2.47;;
146;SDS011;45999;48.808;9.182;2023-06-24T12:30:14;3.40;;;2.90;;
146;SDS011;45999;48.808;9.182;2023-06-24T12:32:41;3.28;;;2.97;;
146;SDS011;45999;48.808;9.182;2023-06-24T12:35:08;3.40;;;3.10;;
146;SDS011;45999;48.808;9.182;2023-06-24T12:37:35;3.10;;;2.80;;
146;SDS011;45999;48.808;9.182;2023-06-24T12:40:02;3.15;;;2.70;;
146;SDS011;45999;48.808;9.182;2023-06-24T12:42:30;3.03;;;2.83;;
146;SDS011;45999;48.808;9.182;2023-06-24T12:44:56;3.28;;;2.97;;
146;SDS011;45999;48.808;9.182;2023-06-24T12:47:22;3.38;;;2.65;;
146;SDS011;45999;48.808;9.182;2023-06-24T12:49:49;3.65;;;3.20;;
146;SDS011;45999;48.808;9.182;2023-06-24T12:52:16;3.22;;;2.92;;
146;SDS011;45999;48.808;9.182;2023-06-24T12:54:42;3.10;;;2.80;;
146;SDS011;45999;48.808;9.182;2023-06-24T12:57:08;3.25;;;2.95;;
146;SDS011;45999;48.808;9.182;2023-06-24T12:59:35;3.08;;;2.88;;
146;SDS011;45999;48.808;9.182;2023-06-24T13:02:02;3.30;;;3.10;;
146;SDS011;45999;48.808;9.182;2023-06-24T13:04:28;3.35;;;3.00;;
146;SDS011;45999;48.808;9.182;2023-06-24T13:06:55;3.13;;;2.90;;
146;SDS011;45999;48.808;9.182;2023-06-24T13:09:21;3.67;;;3.38;;
146;SDS011;45999;48.808;9.182;2023-06-24T13:11:47;4.07;;;3.45;;
146;SDS011;45999;48.808;9.182;2023-06-24T13:14:14;3.25;;;3.05;;
146;SDS011;45999;48.808;9.182;2023-06-24T13:16:41;3.60;;;2.97;;
146;SDS011;45999;48.808;9.182;2023-06-24T13:19:07;3.90;;;2.83;;
146;SDS011;45999;48.808;9.182;2023-06-24T13:21:34;3.03;;;2.72;;
146;SDS011;45999;48.808;9.182;2023-06-24T13:24:00;3.10;;;2.88;;
146;SDS011;45999;48.808;9.182;2023-06-24T13:26:26;3.47;;;2.60;;
146;SDS011;45999;48.808;9.182;2023-06-24T13:28:53;4.75;;;3.00;;
146;SDS011;45999;48.808;9.182;2023-06-24T13:31:19;4.15;;;2.70;;
146;SDS011;45999;48.808;9.182;2023-06-24T13:33:46;3.13;;;2.92;;
146;SDS011;45999;48.808;9.182;2023-06-24T13:36:25;3.05;;;2.85;;
146;SDS011;45999;48.808;9.182;2023-06-24T13:38:56;2.90;;;2.70;;
146;SDS011;45999;48.808;9.182;2023-06-24T13:41:22;3.00;;;2.80;;
146;SDS011;45999;48.808;9.182;2023-06-24T13:43:48;3.35;;;3.15;;
146;SDS011;45999;48.808;9.182;2023-06-24T13:46:15;3.47;;;2.92;;
146;SDS011;45999;48.808;9.182;2023-06-24T13:48:41;2.88;;;2.67;;
146;SDS011;45999;48.808;9.182;2023-06-24T13:51:08;3.40;;;3.10;;
146;SDS011;45999;48.808;9.182;2023-06-24T13:53:34;2.90;;;2.70;;
146;SDS011;45999;48.808;9.182;2023-06-24T13:56:01;3.15;;;2.90;;
146;SDS011;45999;48.808;9.182;2023-06-24T13:58:27;2.95;;;2.75;;
146;SDS011;45999;48.808;9.182;2023-06-24T14:00:54;2.90;;;2.70;;
146;SDS011;45999;48.808;9.182;2023-06-24T14:03:20;3.88;;;2.90;;
146;SDS011;45999;48.808;9.182;2023-06-24T14:05:46;3.50;;;3.22;;
146;SDS011;45999;48.808;9.182;2023-06-24T14:08:13;3.33;;;3.03;;
146;SDS011;45999;48.808;9.182;2023-06-24T14:10:39;4.85;;;2.97;;
146;SDS011;45999;48.808;9.182;2023-06-24T14:13:05;3.03;;;2.70;;
146;SDS011;45999;48.808;9.182;2023-06-24T14:15:32;3.00;;;2.80;;
146;SDS011;45999;48.808;9.182;2023-06-24T14:17:58;3.05;;;2.85;;
146;SDS011;45999;48.808;9.182;2023-06-24T14:20:24;2.90;;;2.70;;
146;SDS011;45999;48.808;9.182;2023-06-24T14:22:51;3.10;;;2.80;;
146;SDS011;45999;48.808;9.182;2023-06-24T14:25:17;3.55;;;3.25;;
146;SDS011;45999;48.808;9.182;2023-06-24T14:27:44;3.50;;;3.30;;
146;SDS011;45999;48.808;9.182;2023-06-24T14:30:10;3.30;;;2.97;;
146;SDS011;45999;48.808;9.182;2023-06-24T14:32:37;4.40;;;3.50;;
146;SDS011;45999;48.808;9.182;2023-06-24T14:35:04;3.10;;;2.90;;
146;SDS011;45999;48.808;9.182;2023-06-24T14:37:30;2.85;;;2.60;;
146;SDS011;45999;48.808;9.182;2023-06-24T14:39:57;3.50;;;3.20;;
146;SDS011;45999;48.808;9.182;2023-06-24T14:42:23;3.38;;;2.90;;
146;SDS011;45999;48.808;9.182;2023-06-24T14:44:49;3.10;;;2.90;;
146;SDS011;45999;48.808;9.182;2023-06-24T14:47:16;3.33;;;3.05;;
146;SDS011;45999;48.808;9.182;2023-06-24T14:49:42;2.90;;;2.70;;
146;SDS011;45999;48.808;9.182;2023-06-24T14:52:09;2.95;;;2.75;;
146;SDS011;45999;48.808;9.182;2023-06-24T14:54:35;3.30;;;3.10;;
146;SDS011;45999;48.808;9.182;2023-06-24T14:57:02;3.05;;;2.75;;
146;SDS011;45999;48.808;9.182;2023-06-24T14:59:28;2.97;;;2.78;;
146;SDS011;45999;48.808;9.182;2023-06-24T15:01:54;3.00;;;2.78;;
146;SDS011;45999;48.808;9.182;2023-06-24T15:04:21;3.10;;;2.90;;
146;SDS011;45999;48.808;9.182;2023-06-24T15:06:47;3.17;;;2.97;;
146;SDS011;45999;48.808;9.182;2023-06-24T15:09:13;3.50;;;2.97;;
146;SDS011;45999;48.808;9.182;2023-06-24T15:11:40;3.17;;;2.97;;
146;SDS011;45999;48.808;9.182;2023-06-24T15:14:06;3.10;;;2.90;;
146;SDS011;45999;48.808;9.182;2023-06-24T15:16:33;3.35;;;3.15;;
146;SDS011;45999;48.808;9.182;2023-06-24T15:18:59;3.00;;;2.80;;
146;SDS011;45999;48.808;9.182;2023-06-24T15:21:25;4.03;;;3.72;;
146;SDS011;45999;48.808;9.182;2023-06-24T15:23:52;3.47;;;3.17;;
146;SDS011;45999;48.808;9.182;2023-06-24T15:26:18;3.47;;;3.08;;
146;SDS011;45999;48.808;9.182;2023-06-24T15:28:44;4.60;;;3.67;;
146;SDS011;45999;48.808;9.182;2023-06-24T15:31:11;3.25;;;2.95;;
146;SDS011;45999;48.808;9.182;2023-06-24T15:33:38;3.53;;;3.22;;
146;SDS011;45999;48.808;9.182;2023-06-24T15:36:04;3.10;;;2.90;;
146;SDS011;45999;48.808;9.182;2023-06-24T15:38:31;3.40;;;3.10;;
146;SDS011;45999;48.808;9.182;2023-06-24T15:40:57;2.97;;;2.78;;
146;SDS011;45999;48.808;9.182;2023-06-24T15:43:24;3.55;;;3.00;;
146;SDS011;45999;48.808;9.182;2023-06-24T15:45:50;3.10;;;2.90;;
146;SDS011;45999;48.808;9.182;2023-06-24T15:48:17;3.25;;;3.05;;